Time;durP1;ratioP1;P1;durP2;ratioP2;P2;SDS_P1;SDS_P2;PMS_P1;PMS_P2;Temp;Humidity;BMP_temperature;BMP_pressure;BME280_temperature;BME280_humidity;BME280_pressure;Samples;Min_cycle;Max_cycle;Signal;HPM_P1;HPM_P2
2022/01/01 00:02:10;;;;;;;21.50;12.05;;;12.70;88.50;;;;;;6255351;28;20523;-80
2022/01/01 00:05:13;;;;;;;26.10;11.95;;;12.70;88.50;;;;;;6253176;28;20049;-82
2022/01/01 00:08:16;;;;;;;22.17;11.50;;;12.80;88.40;;;;;;6257468;28;20045;-81
2022/01/01 00:11:18;;;;;;;23.90;12.20;;;12.80;88.30;;;;;;6257828;28;20050;-80
2022/01/01 00:14:21;;;;;;;25.48;13.10;;;12.80;88.20;;;;;;6257072;28;20056;-81
2022/01/01 00:17:22;;;;;;;26.95;13.00;;;12.80;88.00;;;;;;6254499;28;20111;-81
2022/01/01 00:20:24;;;;;;;24.13;11.55;;;12.90;88.00;;;;;;6251124;28;20041;-79
2022/01/01 00:23:26;;;;;;;47.15;26.58;;;13.00;87.90;;;;;;6267211;28;20053;-78
2022/01/01 00:26:28;;;;;;;29.52;15.43;;;13.00;87.70;;;;;;6272402;28;20411;-78
2022/01/01 00:29:31;;;;;;;21.90;12.88;;;13.00;87.60;;;;;;6275405;28;20049;-79
2022/01/01 00:32:33;;;;;;;26.60;14.13;;;13.00;87.50;;;;;;6277060;28;20056;-79
2022/01/01 00:35:35;;;;;;;23.15;12.93;;;12.80;87.80;;;;;;6278969;28;20486;-78
2022/01/01 00:38:36;;;;;;;30.30;13.63;;;12.80;88.40;;;;;;6279168;28;20179;-79
2022/01/01 00:41:38;;;;;;;30.75;13.77;;;12.70;88.60;;;;;;6280324;28;20049;-79
2022/01/01 00:44:41;;;;;;;34.85;14.85;;;12.50;89.00;;;;;;6277126;28;20051;-80
2022/01/01 00:47:43;;;;;;;28.08;14.38;;;12.40;89.60;;;;;;6279776;28;20076;-80
2022/01/01 00:50:45;;;;;;;31.30;14.52;;;12.30;90.20;;;;;;6278647;28;20049;-80
2022/01/01 00:53:47;;;;;;;29.75;14.80;;;12.20;90.50;;;;;;6278306;28;20053;-80
2022/01/01 00:56:48;;;;;;;32.38;14.93;;;12.00;91.00;;;;;;6275563;28;20045;-80
2022/01/01 00:59:52;;;;;;;29.25;14.60;;;12.00;91.00;;;;;;6275576;28;20555;-80
2022/01/01 01:02:53;;;;;;;24.50;13.57;;;12.00;91.10;;;;;;6274478;28;20131;-79
2022/01/01 01:05:55;;;;;;;26.77;13.73;;;12.00;91.20;;;;;;6269618;28;20131;-79
2022/01/01 01:08:59;;;;;;;33.95;15.10;;;11.90;91.50;;;;;;6271386;28;20099;-79
2022/01/01 01:12:00;;;;;;;26.38;13.73;;;11.80;91.50;;;;;;6271336;28;20079;-80
2022/01/01 01:15:04;;;;;;;32.67;13.80;;;11.80;91.60;;;;;;6273973;28;20130;-79
2022/01/01 01:18:06;;;;;;;31.35;13.93;;;11.80;91.90;;;;;;6274653;28;20049;-79
2022/01/01 01:21:08;;;;;;;27.30;12.32;;;11.80;91.70;;;;;;6278763;28;20045;-80
2022/01/01 01:24:09;;;;;;;31.20;14.50;;;11.80;92.00;;;;;;6277561;28;20041;-79
2022/01/01 01:27:11;;;;;;;31.15;14.00;;;11.80;91.80;;;;;;6277522;28;20045;-80
2022/01/01 01:30:16;;;;;;;25.08;11.88;;;11.80;91.90;;;;;;6277117;28;20202;-80
2022/01/01 01:33:18;;;;;;;31.10;13.50;;;11.70;92.00;;;;;;6277503;28;20056;-79
2022/01/01 01:36:20;;;;;;;31.65;13.38;;;11.70;92.20;;;;;;6276403;28;20044;-80
2022/01/01 01:39:21;;;;;;;30.42;11.93;;;11.70;92.20;;;;;;6277766;28;20049;-78
2022/01/01 01:42:25;;;;;;;33.45;12.77;;;11.70;92.50;;;;;;6281165;28;20037;-78
2022/01/01 01:45:28;;;;;;;28.30;11.98;;;11.70;92.40;;;;;;6277779;28;20048;-79
2022/01/01 01:48:31;;;;;;;26.13;12.73;;;11.70;92.40;;;;;;6279327;28;20123;-80
2022/01/01 01:51:33;;;;;;;31.00;11.65;;;11.80;92.50;;;;;;6279132;28;20059;-79
2022/01/01 01:54:35;;;;;;;24.08;11.88;;;11.80;92.40;;;;;;6280069;28;20057;-80
2022/01/01 01:57:40;;;;;;;31.58;12.98;;;11.80;92.40;;;;;;6278032;28;20128;-80
2022/01/01 02:01:10;;;;;;;26.92;11.95;;;11.90;92.30;;;;;;6276674;28;20125;-79
2022/01/01 02:04:12;;;;;;;28.00;11.57;;;11.80;92.20;;;;;;6275953;28;20128;-80
2022/01/01 02:07:14;;;;;;;24.33;11.10;;;11.80;92.40;;;;;;6275331;28;20099;-78
2022/01/01 02:10:17;;;;;;;32.60;10.20;;;11.80;92.30;;;;;;6274638;28;20124;-80
2022/01/01 02:13:24;;;;;;;22.52;9.60;;;11.80;92.30;;;;;;6275115;28;20106;-80
2022/01/01 02:16:35;;;;;;;31.20;11.67;;;11.80;92.60;;;;;;6274531;28;20077;-81
2022/01/01 02:19:49;;;;;;;28.73;11.25;;;11.70;92.30;;;;;;6281914;28;20048;-81
2022/01/01 02:22:58;;;;;;;21.17;11.00;;;11.80;92.30;;;;;;6281811;28;20056;-80
2022/01/01 02:26:00;;;;;;;28.27;12.70;;;11.60;92.30;;;;;;6280414;28;20465;-80
2022/01/01 02:29:03;;;;;;;32.67;12.82;;;11.60;92.40;;;;;;6279982;28;20429;-80
2022/01/01 02:32:09;;;;;;;38.63;14.95;;;11.60;92.50;;;;;;6281276;28;20044;-81
2022/01/01 02:35:13;;;;;;;37.47;13.20;;;11.50;92.50;;;;;;6279495;28;20080;-79
2022/01/01 02:38:16;;;;;;;33.40;15.55;;;11.50;92.50;;;;;;6276103;28;20048;-79
2022/01/01 02:41:18;;;;;;;32.78;13.80;;;11.50;92.50;;;;;;6279441;28;20052;-78
2022/01/01 02:44:21;;;;;;;35.95;14.80;;;11.60;92.50;;;;;;6274280;28;20516;-79
2022/01/01 02:47:23;;;;;;;39.00;15.07;;;11.60;92.40;;;;;;6275455;28;20048;-80
2022/01/01 02:50:25;;;;;;;41.42;15.90;;;11.60;92.30;;;;;;6279371;28;20072;-80
2022/01/01 02:53:30;;;;;;;34.00;15.00;;;11.50;92.30;;;;;;6277499;28;20045;-80
2022/01/01 02:56:31;;;;;;;31.20;14.63;;;11.50;92.30;;;;;;6275447;28;20048;-79
2022/01/01 02:59:33;;;;;;;38.13;17.08;;;11.50;92.30;;;;;;6274786;28;20142;-79
2022/01/01 03:02:35;;;;;;;40.50;15.07;;;11.50;92.30;;;;;;6273738;28;20138;-80
2022/01/01 03:05:37;;;;;;;40.10;16.15;;;11.50;92.20;;;;;;6273225;28;20514;-79
2022/01/01 03:08:40;;;;;;;44.45;17.40;;;11.50;92.20;;;;;;6273802;28;20120;-79
2022/01/01 03:11:42;;;;;;;40.00;17.13;;;11.50;92.20;;;;;;6273516;28;20207;-79
2022/01/01 03:14:44;;;;;;;34.65;16.75;;;11.60;92.20;;;;;;6272936;28;20718;-79
2022/01/01 03:17:46;;;;;;;38.25;18.85;;;11.60;92.20;;;;;;6272857;28;20049;-80
2022/01/01 03:20:48;;;;;;;45.97;17.73;;;11.60;92.00;;;;;;6272911;28;20072;-79
2022/01/01 03:23:51;;;;;;;38.83;16.80;;;11.60;91.90;;;;;;6272391;28;20052;-79
2022/01/01 03:26:53;;;;;;;37.20;17.33;;;11.60;91.90;;;;;;6272376;28;20167;-79
2022/01/01 03:29:54;;;;;;;43.28;17.58;;;11.50;91.90;;;;;;6272009;28;20112;-79
2022/01/01 03:32:56;;;;;;;41.65;18.35;;;11.50;91.90;;;;;;6272330;28;20048;-79
2022/01/01 03:35:58;;;;;;;36.35;17.73;;;11.50;91.90;;;;;;6272080;28;20044;-79
2022/01/01 03:39:01;;;;;;;36.15;16.33;;;11.50;92.00;;;;;;6272391;28;20434;-79
2022/01/01 03:42:04;;;;;;;38.83;17.98;;;11.50;92.00;;;;;;6272184;28;20566;-79
2022/01/01 03:45:07;;;;;;;35.03;16.17;;;11.50;91.90;;;;;;6271978;28;20087;-79
2022/01/01 03:48:09;;;;;;;36.20;16.48;;;11.50;91.80;;;;;;6272219;28;20204;-79
2022/01/01 03:51:11;;;;;;;31.60;14.27;;;11.50;91.70;;;;;;6272861;28;20415;-81
2022/01/01 03:54:16;;;;;;;37.13;13.75;;;11.40;91.70;;;;;;6272071;28;20789;-80
2022/01/01 03:57:20;;;;;;;28.88;14.98;;;11.30;91.70;;;;;;6271990;28;20045;-79
2022/01/01 04:00:22;;;;;;;31.65;14.52;;;11.20;91.80;;;;;;6272326;28;20044;-79
2022/01/01 04:03:24;;;;;;;29.70;14.98;;;11.20;91.80;;;;;;6272234;28;20136;-79
2022/01/01 04:06:26;;;;;;;38.20;16.95;;;11.00;91.60;;;;;;6271591;28;20057;-80
2022/01/01 04:09:29;;;;;;;37.33;16.50;;;11.00;91.70;;;;;;6271735;28;20499;-80
2022/01/01 04:12:31;;;;;;;40.22;15.50;;;10.80;91.70;;;;;;6271898;28;20410;-79
2022/01/01 04:15:34;;;;;;;30.77;16.25;;;10.70;91.80;;;;;;6271661;28;20044;-79
2022/01/01 04:18:39;;;;;;;37.05;17.30;;;10.50;91.90;;;;;;6271956;28;20546;-79
2022/01/01 04:21:40;;;;;;;32.80;14.27;;;10.40;92.00;;;;;;6271207;28;20056;-80
2022/01/01 04:24:44;;;;;;;38.53;16.08;;;10.20;92.00;;;;;;6270745;28;20103;-80
2022/01/01 04:27:46;;;;;;;40.85;15.15;;;10.10;92.00;;;;;;6271307;28;20094;-79
2022/01/01 04:30:47;;;;;;;33.05;15.07;;;10.00;92.10;;;;;;6271774;28;20053;-80
2022/01/01 04:33:49;;;;;;;46.53;15.40;;;9.90;92.10;;;;;;6271094;28;20045;-79
2022/01/01 04:37:00;;;;;;;35.67;15.35;;;9.80;92.10;;;;;;6270673;28;20525;-79
2022/01/01 04:40:03;;;;;;;40.10;15.70;;;9.80;92.10;;;;;;6271573;28;20179;-79
2022/01/01 04:43:05;;;;;;;30.98;14.00;;;9.60;92.10;;;;;;6271799;28;20083;-79
2022/01/01 04:46:07;;;;;;;36.90;15.38;;;9.50;92.20;;;;;;6270234;28;20214;-81
2022/01/01 04:49:09;;;;;;;38.65;16.23;;;9.50;92.20;;;;;;6271209;28;20057;-80
2022/01/01 04:52:10;;;;;;;37.60;15.98;;;9.40;92.10;;;;;;6277736;28;20399;-80
2022/01/01 04:55:14;;;;;;;35.92;15.20;;;9.30;92.20;;;;;;6278290;28;20067;-80
2022/01/01 04:58:16;;;;;;;42.22;16.05;;;9.30;92.20;;;;;;6279094;28;20045;-79
2022/01/01 05:01:19;;;;;;;36.42;15.77;;;9.20;92.20;;;;;;6287344;28;20060;-80
2022/01/01 05:04:20;;;;;;;44.50;17.45;;;9.10;92.20;;;;;;6288045;28;20075;-80
2022/01/01 05:07:23;;;;;;;42.75;15.40;;;9.10;92.20;;;;;;6286884;28;20056;-82
2022/01/01 05:10:26;;;;;;;44.45;17.13;;;9.00;92.20;;;;;;6286843;28;20045;-79
2022/01/01 05:13:28;;;;;;;46.70;18.20;;;9.00;92.20;;;;;;6287251;28;20048;-78
2022/01/01 05:16:30;;;;;;;43.30;17.17;;;9.00;92.20;;;;;;6287117;28;20148;-79
2022/01/01 05:19:32;;;;;;;36.78;16.52;;;8.90;92.30;;;;;;6284894;28;20457;-79
2022/01/01 05:22:33;;;;;;;43.55;16.75;;;8.90;92.30;;;;;;6286880;28;20045;-78
2022/01/01 05:25:36;;;;;;;38.20;15.85;;;8.90;92.50;;;;;;6286892;28;20045;-79
2022/01/01 05:28:38;;;;;;;40.40;17.48;;;9.00;92.50;;;;;;6286838;28;20048;-78
2022/01/01 05:31:40;;;;;;;46.90;18.13;;;9.20;92.50;;;;;;6277549;22;20048;-82
2022/01/01 05:34:42;;;;;;;43.70;17.33;;;9.40;92.40;;;;;;6234436;28;20049;-84
2022/01/01 05:37:44;;;;;;;44.47;16.48;;;9.50;92.50;;;;;;6236609;28;20050;-84
2022/01/01 05:40:47;;;;;;;45.17;15.88;;;9.60;92.20;;;;;;6246021;28;20042;-84
2022/01/01 05:43:49;;;;;;;35.33;14.68;;;9.70;92.20;;;;;;6254899;28;20069;-83
2022/01/01 05:46:53;;;;;;;36.30;14.93;;;9.90;92.20;;;;;;6232087;28;20046;-84
2022/01/01 05:49:54;;;;;;;39.00;15.90;;;9.90;92.10;;;;;;6231873;28;20050;-84
2022/01/01 05:52:56;;;;;;;35.78;14.48;;;9.90;91.90;;;;;;6231462;28;20097;-83
2022/01/01 05:55:59;;;;;;;44.15;16.05;;;9.80;91.70;;;;;;6230135;28;20858;-84
2022/01/01 05:59:02;;;;;;;35.03;14.35;;;9.70;91.90;;;;;;6233636;28;20127;-83
2022/01/01 06:02:04;;;;;;;43.17;15.88;;;9.60;92.10;;;;;;6232244;28;20517;-84
2022/01/01 06:05:06;;;;;;;39.08;14.85;;;9.60;92.20;;;;;;6229962;28;20065;-83
2022/01/01 06:08:08;;;;;;;39.92;15.25;;;9.60;92.20;;;;;;6229442;28;20052;-83
2022/01/01 06:11:11;;;;;;;39.05;15.02;;;9.60;92.30;;;;;;6229814;28;20534;-82
2022/01/01 06:14:13;;;;;;;40.42;15.82;;;9.50;92.30;;;;;;6229051;28;20057;-83
2022/01/01 06:17:14;;;;;;;41.83;15.07;;;9.60;92.40;;;;;;6229442;28;20129;-83
2022/01/01 06:20:17;;;;;;;31.38;14.07;;;9.60;92.50;;;;;;6229207;28;20048;-83
2022/01/01 06:23:19;;;;;;;44.15;15.43;;;9.70;92.30;;;;;;6228912;28;20081;-82
2022/01/01 06:26:22;;;;;;;45.97;16.63;;;9.80;92.20;;;;;;6228367;28;20042;-82
2022/01/01 06:29:23;;;;;;;39.92;14.80;;;9.80;92.00;;;;;;6228240;28;20136;-82
2022/01/01 06:32:25;;;;;;;38.67;14.98;;;9.60;91.90;;;;;;6231929;28;20069;-81
2022/01/01 06:35:27;;;;;;;41.03;15.63;;;9.60;92.00;;;;;;6230695;28;20060;-82
2022/01/01 06:38:29;;;;;;;33.90;14.55;;;9.50;92.00;;;;;;6231583;28;20065;-81
2022/01/01 06:41:32;;;;;;;35.63;14.10;;;9.40;92.20;;;;;;6232742;28;20586;-82
2022/01/01 06:44:34;;;;;;;34.88;13.85;;;9.30;92.40;;;;;;6232617;28;20478;-81
2022/01/01 06:47:36;;;;;;;38.58;12.68;;;9.40;92.50;;;;;;6232249;28;20073;-81
2022/01/01 06:50:38;;;;;;;33.55;13.73;;;9.40;92.60;;;;;;6232127;28;20084;-81
2022/01/01 06:53:40;;;;;;;35.60;16.15;;;9.50;92.40;;;;;;6233887;28;20050;-81
2022/01/01 06:56:43;;;;;;;40.28;15.07;;;9.50;92.30;;;;;;6231980;28;20042;-82
2022/01/01 06:59:45;;;;;;;41.63;15.07;;;9.50;92.40;;;;;;6232359;28;20054;-81
2022/01/01 07:02:48;;;;;;;34.80;13.45;;;9.50;92.40;;;;;;6232306;28;20415;-81
2022/01/01 07:05:50;;;;;;;31.67;12.43;;;9.50;92.50;;;;;;6230763;28;20496;-82
2022/01/01 07:08:52;;;;;;;39.17;15.50;;;9.60;92.40;;;;;;6230628;28;20080;-81
2022/01/01 07:11:57;;;;;;;40.22;14.88;;;9.70;92.30;;;;;;6230818;28;20105;-82
2022/01/01 07:14:58;;;;;;;31.38;14.25;;;9.60;92.30;;;;;;6232283;28;20048;-83
2022/01/01 07:18:00;;;;;;;33.05;13.93;;;9.60;92.40;;;;;;6229959;28;20056;-82
2022/01/01 07:21:02;;;;;;;35.05;14.10;;;9.60;92.40;;;;;;6231022;28;20050;-82
2022/01/01 07:24:04;;;;;;;31.67;13.43;;;9.70;92.30;;;;;;6231454;28;20061;-82
2022/01/01 07:27:07;;;;;;;35.53;13.55;;;9.70;92.20;;;;;;6231185;28;20133;-81
2022/01/01 07:30:10;;;;;;;35.22;12.35;;;9.70;92.20;;;;;;6230493;28;20449;-83
2022/01/01 07:33:13;;;;;;;35.15;13.30;;;9.60;92.20;;;;;;6230648;28;20052;-81
2022/01/01 07:36:15;;;;;;;32.30;11.95;;;9.60;92.20;;;;;;6228707;28;20396;-82
2022/01/01 07:39:17;;;;;;;27.33;12.60;;;9.60;92.10;;;;;;6230390;28;20054;-82
2022/01/01 07:42:20;;;;;;;29.58;11.82;;;9.50;92.20;;;;;;6249680;28;20046;-82
2022/01/01 07:45:21;;;;;;;28.65;12.10;;;9.50;92.10;;;;;;6246361;28;20101;-82
2022/01/01 07:48:23;;;;;;;27.95;11.55;;;9.50;92.10;;;;;;6238416;28;20411;-82
2022/01/01 07:51:25;;;;;;;32.35;12.70;;;9.50;92.10;;;;;;6237909;28;20050;-82
2022/01/01 07:54:27;;;;;;;35.72;13.48;;;9.60;92.10;;;;;;6237408;28;20054;-82
2022/01/01 07:57:30;;;;;;;29.45;13.60;;;9.60;92.00;;;;;;6236461;28;20140;-82
2022/01/01 08:00:32;;;;;;;31.27;12.50;;;9.50;92.10;;;;;;6234741;28;20050;-82
2022/01/01 08:03:34;;;;;;;32.55;12.93;;;9.60;92.20;;;;;;6234416;28;20046;-82
2022/01/01 08:06:36;;;;;;;29.75;13.05;;;9.70;92.00;;;;;;6234022;28;20054;-82
2022/01/01 08:09:38;;;;;;;25.10;12.25;;;9.80;92.00;;;;;;6231519;28;20100;-83
2022/01/01 08:12:42;;;;;;;29.85;13.15;;;9.90;91.90;;;;;;6233428;28;20046;-81
2022/01/01 08:15:43;;;;;;;31.30;14.52;;;10.10;91.80;;;;;;6232567;28;20054;-82
2022/01/01 08:18:45;;;;;;;25.73;12.65;;;10.20;91.70;;;;;;6230851;28;20050;-82
2022/01/01 08:21:47;;;;;;;29.05;13.52;;;10.30;91.70;;;;;;6229053;28;20482;-82
2022/01/01 08:24:49;;;;;;;27.90;12.43;;;10.60;91.70;;;;;;6229692;28;20050;-83
2022/01/01 08:27:52;;;;;;;20.98;10.50;;;10.60;91.50;;;;;;6232887;28;20053;-82
2022/01/01 08:30:53;;;;;;;27.98;12.00;;;10.80;91.40;;;;;;6234635;28;20117;-82
2022/01/01 08:33:55;;;;;;;29.10;11.40;;;10.80;91.40;;;;;;6235669;28;20038;-82
2022/01/01 08:36:57;;;;;;;25.58;12.35;;;10.90;91.30;;;;;;6231616;28;20053;-82
2022/01/01 08:39:59;;;;;;;30.30;12.00;;;11.00;91.10;;;;;;6227283;28;20492;-81
2022/01/01 08:43:02;;;;;;;21.90;12.52;;;11.20;91.10;;;;;;6228455;28;20060;-82
2022/01/01 08:46:04;;;;;;;26.95;10.60;;;11.20;91.00;;;;;;6227284;28;20527;-81
2022/01/01 08:49:06;;;;;;;23.63;11.40;;;11.30;90.90;;;;;;6228101;28;20048;-81
2022/01/01 08:52:11;;;;;;;17.45;9.93;;;11.40;90.70;;;;;;6228273;28;20056;-82
2022/01/01 08:55:13;;;;;;;23.77;9.20;;;11.50;90.50;;;;;;6228633;28;20054;-82
2022/01/01 08:58:16;;;;;;;17.58;9.02;;;11.60;90.60;;;;;;6225838;28;20574;-81
2022/01/01 09:01:18;;;;;;;21.10;10.27;;;11.70;90.50;;;;;;6228287;28;20097;-82
2022/01/01 09:04:20;;;;;;;18.15;9.85;;;11.80;90.50;;;;;;6228367;28;20068;-81
2022/01/01 09:07:28;;;;;;;19.50;8.30;;;11.90;90.30;;;;;;6228609;28;20510;-81
2022/01/01 09:10:29;;;;;;;17.33;8.40;;;12.00;90.10;;;;;;6228600;28;20050;-81
2022/01/01 09:13:32;;;;;;;18.52;9.07;;;12.10;90.00;;;;;;6245644;28;20056;-81
2022/01/01 09:16:34;;;;;;;20.75;8.25;;;12.20;89.40;;;;;;6253333;28;20052;-81
2022/01/01 09:19:36;;;;;;;17.05;8.88;;;12.30;89.30;;;;;;6252713;28;20502;-81
2022/01/01 09:22:38;;;;;;;16.38;8.40;;;12.60;89.20;;;;;;6253578;28;20053;-81
2022/01/01 09:25:39;;;;;;;15.05;8.02;;;13.00;88.60;;;;;;6252686;28;20129;-82
2022/01/01 09:28:43;;;;;;;12.13;7.45;;;13.50;87.10;;;;;;6253430;28;20423;-82
2022/01/01 09:31:44;;;;;;;12.15;6.30;;;13.80;85.60;;;;;;6252713;28;20144;-82
2022/01/01 09:34:46;;;;;;;16.88;6.97;;;14.00;83.40;;;;;;6253567;28;20057;-82
2022/01/01 09:37:48;;;;;;;7.80;5.28;;;14.10;82.30;;;;;;6253252;28;20114;-83
2022/01/01 09:40:53;;;;;;;10.20;5.32;;;14.30;81.90;;;;;;6223824;28;20053;-85
2022/01/01 09:43:57;;;;;;;14.00;6.78;;;14.30;81.40;;;;;;6253607;28;20494;-84
2022/01/01 09:46:59;;;;;;;9.95;5.70;;;14.60;80.90;;;;;;6254284;28;20049;-83
2022/01/01 09:50:01;;;;;;;10.52;5.47;;;14.80;80.20;;;;;;6252999;28;20064;-84
2022/01/01 09:53:03;;;;;;;14.23;5.57;;;15.10;79.30;;;;;;6239050;28;20065;-81
2022/01/01 09:56:06;;;;;;;8.90;5.05;;;15.40;78.60;;;;;;6254789;28;20045;-82
2022/01/01 09:59:09;;;;;;;8.07;3.58;;;15.60;77.10;;;;;;6254243;28;20060;-82
2022/01/01 10:02:11;;;;;;;7.53;4.50;;;15.70;75.70;;;;;;6276023;28;20049;-80
2022/01/01 10:05:13;;;;;;;8.98;4.40;;;15.90;74.80;;;;;;6256228;28;20056;-81
2022/01/01 10:08:24;;;;;;;8.52;4.88;;;16.20;74.00;;;;;;6247227;28;20389;-83
2022/01/01 10:11:27;;;;;;;6.15;3.70;;;16.40;73.00;;;;;;6229930;28;20140;-82
2022/01/01 10:14:38;;;;;;;5.70;3.47;;;16.80;72.10;;;;;;6229710;28;20132;-82
2022/01/01 10:17:39;;;;;;;7.65;3.50;;;17.00;70.70;;;;;;6248583;28;20050;-83
2022/01/01 10:20:44;;;;;;;7.03;3.03;;;17.30;69.60;;;;;;6255661;28;20147;-81
2022/01/01 10:23:49;;;;;;;8.55;3.58;;;17.40;69.10;;;;;;6241715;28;20437;-81
2022/01/01 10:30:18;;;;;;;8.32;3.55;;;17.70;67.80;;;;;;6230345;28;20042;-81
2022/01/01 10:33:22;;;;;;;7.35;3.45;;;17.80;67.60;;;;;;6230439;28;20408;-82
2022/01/01 10:36:24;;;;;;;6.18;3.00;;;17.90;67.60;;;;;;6228662;28;20053;-82
2022/01/01 10:39:26;;;;;;;7.70;3.42;;;18.00;67.40;;;;;;6230116;28;20085;-80
2022/01/01 10:42:28;;;;;;;4.75;3.03;;;18.00;66.80;;;;;;6230399;28;20152;-82
2022/01/01 10:45:36;;;;;;;5.35;3.00;;;18.10;66.90;;;;;;6229830;28;20045;-81
2022/01/01 10:48:54;;;;;;;5.75;3.40;;;18.30;66.80;;;;;;6230666;28;20567;-82
2022/01/01 10:51:55;;;;;;;5.63;2.88;;;18.50;66.30;;;;;;6229696;28;20124;-81
2022/01/01 10:54:58;;;;;;;3.90;2.28;;;18.70;65.20;;;;;;6230406;28;20126;-82
2022/01/01 10:58:02;;;;;;;5.30;2.50;;;19.00;64.50;;;;;;6230189;28;20546;-84
2022/01/01 11:01:07;;;;;;;5.60;2.63;;;19.20;63.20;;;;;;6229855;28;20042;-81
2022/01/01 11:04:09;;;;;;;8.55;2.78;;;19.30;62.80;;;;;;6229921;28;20092;-81
2022/01/01 11:07:11;;;;;;;5.82;2.30;;;19.60;61.90;;;;;;6230861;28;20063;-81
2022/01/01 11:10:13;;;;;;;5.97;2.90;;;19.70;61.30;;;;;;6232119;28;20061;-81
2022/01/01 11:13:15;;;;;;;5.50;2.15;;;19.80;59.80;;;;;;6231436;28;20136;-82
2022/01/01 11:16:20;;;;;;;3.33;1.90;;;19.90;60.00;;;;;;6237712;28;20048;-81
2022/01/01 11:19:24;;;;;;;4.57;2.20;;;20.10;58.40;;;;;;6236899;28;20058;-82
2022/01/01 11:22:27;;;;;;;4.30;2.42;;;20.10;59.10;;;;;;6239872;28;20057;-82
2022/01/01 11:25:29;;;;;;;5.00;2.63;;;20.20;59.70;;;;;;6265757;28;20116;-81
2022/01/01 11:28:31;;;;;;;6.05;3.45;;;20.40;60.00;;;;;;6280725;28;20150;-81
2022/01/01 11:31:36;;;;;;;7.80;3.28;;;20.60;60.20;;;;;;6299986;22;20056;-80
2022/01/01 11:34:39;;;;;;;4.80;2.65;;;20.80;59.40;;;;;;6274270;28;20052;-81
2022/01/01 11:37:57;;;;;;;6.07;2.55;;;21.00;60.00;;;;;;6274432;28;20576;-80
2022/01/01 11:41:05;;;;;;;7.60;2.55;;;21.10;59.20;;;;;;6272937;28;20049;-79
2022/01/01 11:44:28;;;;;;;8.95;6.78;;;21.20;58.60;;;;;;6273802;28;20410;-80
2022/01/01 11:47:33;;;;;;;4.38;2.72;;;21.50;56.90;;;;;;6274188;28;20187;-79
2022/01/01 11:50:44;;;;;;;5.53;1.95;;;21.60;57.40;;;;;;6275671;28;20483;-80
2022/01/01 11:54:20;;;;;;;4.03;2.17;;;21.70;55.80;;;;;;6273858;28;20055;-80
2022/01/01 11:57:28;;;;;;;4.60;1.90;;;21.90;55.50;;;;;;6273625;28;20045;-80
2022/01/01 12:00:31;;;;;;;3.55;1.75;;;22.00;54.90;;;;;;6273573;28;20060;-80
2022/01/01 12:03:49;;;;;;;4.45;1.90;;;22.00;54.50;;;;;;6274678;28;20098;-80
2022/01/01 12:06:53;;;;;;;2.75;1.58;;;22.00;54.70;;;;;;6272598;28;20055;-81
2022/01/01 12:10:14;;;;;;;4.80;2.53;;;22.00;54.50;;;;;;6274958;28;20056;-81
2022/01/01 12:13:16;;;;;;;4.10;2.00;;;22.10;53.40;;;;;;6250106;28;20049;-79
2022/01/01 12:16:21;;;;;;;3.35;2.08;;;22.00;53.40;;;;;;6249445;28;20042;-80
2022/01/01 12:19:26;;;;;;;5.05;2.05;;;22.00;53.50;;;;;;6249125;28;20045;-80
2022/01/01 12:22:28;;;;;;;3.78;2.00;;;22.00;53.20;;;;;;6264830;28;20052;-80
2022/01/01 12:25:35;;;;;;;4.20;2.00;;;22.00;53.50;;;;;;6274815;28;20051;-81
2022/01/01 12:28:39;;;;;;;4.18;2.20;;;21.90;52.80;;;;;;6278254;28;20067;-81
2022/01/01 12:31:55;;;;;;;3.63;1.92;;;21.80;52.80;;;;;;6275792;28;20057;-81
2022/01/01 12:35:08;;;;;;;4.50;1.88;;;21.80;52.50;;;;;;6277612;28;20494;-81
2022/01/01 12:38:12;;;;;;;3.60;1.90;;;21.70;52.40;;;;;;6273969;28;20052;-80
2022/01/01 12:41:16;;;;;;;4.18;1.67;;;21.70;52.90;;;;;;6274290;28;20191;-79
2022/01/01 12:44:20;;;;;;;3.15;1.88;;;21.70;53.00;;;;;;6276109;28;20052;-81
2022/01/01 12:47:22;;;;;;;3.20;1.63;;;21.70;53.30;;;;;;6281569;28;20065;-81
2022/01/01 12:50:26;;;;;;;3.55;2.00;;;21.70;52.90;;;;;;6284679;28;20097;-81
2022/01/01 12:53:29;;;;;;;4.70;1.92;;;21.60;53.70;;;;;;6285013;28;20114;-81
2022/01/01 12:56:33;;;;;;;3.25;1.30;;;21.60;53.40;;;;;;6283621;28;20060;-81
2022/01/01 12:59:35;;;;;;;2.17;1.20;;;21.50;53.40;;;;;;6278839;28;20103;-81
2022/01/01 13:02:37;;;;;;;4.38;1.83;;;21.50;53.50;;;;;;6274251;28;20079;-81
2022/01/01 13:05:40;;;;;;;2.83;1.77;;;21.50;54.00;;;;;;6278302;28;20044;-82
2022/01/01 13:12:13;;;;;;;10.77;1.90;;;21.40;53.00;;;;;;6298145;28;20044;-81
2022/01/01 13:15:18;;;;;;;5.07;1.67;;;21.30;53.40;;;;;;6303154;28;20044;-81
2022/01/01 13:18:22;;;;;;;6.93;2.63;;;21.20;53.90;;;;;;6301982;28;20041;-81
2022/01/01 13:21:25;;;;;;;5.28;1.88;;;21.10;53.90;;;;;;6293999;28;20132;-80
2022/01/01 13:24:30;;;;;;;6.63;1.55;;;20.90;54.20;;;;;;6264853;28;20049;-82
2022/01/01 13:27:33;;;;;;;4.57;2.13;;;20.70;54.30;;;;;;6277558;28;20052;-81
2022/01/01 13:30:35;;;;;;;3.65;1.60;;;20.50;55.10;;;;;;6277948;28;20424;-81
2022/01/01 13:33:42;;;;;;;5.20;1.58;;;20.30;55.60;;;;;;6277930;28;20151;-81
2022/01/01 13:36:46;;;;;;;4.35;1.83;;;20.20;56.10;;;;;;6277384;28;20048;-80
2022/01/01 13:39:48;;;;;;;3.40;1.90;;;20.10;56.30;;;;;;6277752;28;20052;-81
2022/01/01 13:42:50;;;;;;;2.85;1.80;;;20.00;56.20;;;;;;6278511;28;20052;-82
2022/01/01 13:46:07;;;;;;;3.40;1.52;;;20.00;56.50;;;;;;6277109;28;20081;-82
2022/01/01 13:49:12;;;;;;;5.10;1.50;;;19.90;56.70;;;;;;6276828;28;20545;-81
2022/01/01 13:52:20;;;;;;;4.20;2.83;;;19.90;56.60;;;;;;6269426;28;20048;-81
2022/01/01 13:55:26;;;;;;;2.50;1.30;;;19.90;56.30;;;;;;6263108;28;20271;-81
2022/01/01 13:58:38;;;;;;;2.88;1.85;;;20.00;56.20;;;;;;6270148;28;20083;-80
2022/01/01 14:01:41;;;;;;;3.28;1.42;;;20.00;56.10;;;;;;6250804;28;20045;-80
2022/01/01 14:04:45;;;;;;;4.05;2.03;;;19.90;56.60;;;;;;6276876;28;20048;-80
2022/01/01 14:07:48;;;;;;;3.38;1.65;;;19.90;56.00;;;;;;6275162;28;20049;-81
2022/01/01 14:10:54;;;;;;;3.65;1.75;;;19.70;56.70;;;;;;6276648;28;20053;-81
2022/01/01 14:14:07;;;;;;;2.92;1.70;;;19.80;57.20;;;;;;6276589;28;20068;-81
2022/01/01 14:17:10;;;;;;;5.50;2.53;;;20.00;57.20;;;;;;6275818;28;20124;-80
2022/01/01 14:20:22;;;;;;;3.95;2.03;;;20.10;56.90;;;;;;6277228;28;20040;-81
2022/01/01 14:23:26;;;;;;;3.47;1.15;;;20.20;57.40;;;;;;6256778;28;20056;-81
2022/01/01 14:26:29;;;;;;;3.47;1.40;;;20.30;56.60;;;;;;6275348;28;20495;-80
2022/01/01 14:29:31;;;;;;;3.38;1.13;;;20.40;56.00;;;;;;6276283;28;20052;-81
2022/01/01 14:32:33;;;;;;;3.55;1.17;;;20.10;55.80;;;;;;6276044;28;20057;-81
2022/01/01 14:35:35;;;;;;;4.93;1.58;;;19.60;57.40;;;;;;6275655;28;20048;-81
2022/01/01 14:38:40;;;;;;;2.72;1.58;;;19.20;58.90;;;;;;6276695;28;20140;-81
2022/01/01 14:41:42;;;;;;;3.38;1.65;;;19.00;59.40;;;;;;6275587;28;20051;-81
2022/01/01 14:44:44;;;;;;;3.92;1.85;;;18.60;60.20;;;;;;6279362;28;20131;-80
2022/01/01 14:47:56;;;;;;;5.07;2.38;;;18.30;61.10;;;;;;6277466;28;20131;-80
2022/01/01 14:51:05;;;;;;;5.32;2.08;;;18.10;61.80;;;;;;6276290;28;20049;-82
2022/01/01 14:54:28;;;;;;;4.55;1.60;;;17.80;62.70;;;;;;6261769;28;20037;-80
2022/01/01 14:57:35;;;;;;;3.88;2.20;;;17.60;63.80;;;;;;6276206;28;20139;-79
2022/01/01 15:00:39;;;;;;;4.05;2.17;;;17.60;63.90;;;;;;6275806;28;20073;-80
2022/01/01 15:03:41;;;;;;;2.83;1.60;;;17.40;64.50;;;;;;6275164;28;20064;-78
2022/01/01 15:06:43;;;;;;;6.25;2.63;;;17.30;65.30;;;;;;6274867;28;20415;-79
2022/01/01 15:09:49;;;;;;;9.60;2.80;;;17.10;65.70;;;;;;6273626;28;20044;-79
2022/01/01 15:12:51;;;;;;;3.03;1.60;;;16.90;66.30;;;;;;6275275;28;20127;-79
2022/01/01 15:15:53;;;;;;;4.93;2.17;;;16.70;66.70;;;;;;6274938;28;20048;-80
2022/01/01 15:18:55;;;;;;;3.90;2.03;;;16.50;67.20;;;;;;6275506;28;20571;-80
2022/01/01 15:22:03;;;;;;;6.55;2.22;;;16.30;67.80;;;;;;6270687;28;20115;-79
2022/01/01 15:25:09;;;;;;;4.03;2.08;;;16.00;68.60;;;;;;6267424;28;20041;-79
2022/01/01 15:28:14;;;;;;;11.10;2.88;;;15.80;69.60;;;;;;6274312;28;20045;-79
2022/01/01 15:31:26;;;;;;;3.58;1.85;;;15.50;70.80;;;;;;6270008;28;20144;-79
2022/01/01 15:34:29;;;;;;;6.22;2.10;;;15.30;71.60;;;;;;6266409;28;20056;-80
2022/01/01 15:37:35;;;;;;;4.40;1.83;;;15.00;72.50;;;;;;6269730;28;20090;-79
2022/01/01 15:40:53;;;;;;;6.82;3.72;;;14.70;73.20;;;;;;6274660;28;20056;-79
2022/01/01 15:43:55;;;;;;;7.00;1.83;;;14.50;73.90;;;;;;6275007;28;20044;-79
2022/01/01 15:46:57;;;;;;;7.20;1.85;;;14.30;74.70;;;;;;6274116;28;20554;-83
2022/01/01 15:50:03;;;;;;;7.63;1.88;;;14.20;75.40;;;;;;6272483;28;20048;-80
2022/01/01 15:53:05;;;;;;;6.75;2.38;;;14.00;75.80;;;;;;6262019;28;20053;-78